Time;durP1;ratioP1;P1;durP2;ratioP2;P2;SDS_P1;SDS_P2;PMS_P1;PMS_P2;Temp;Humidity;BMP_temperature;BMP_pressure;BME280_temperature;BME280_humidity;BME280_pressure;Samples;Min_cycle;Max_cycle;Signal;HPM_P1;HPM_P2
2021/12/24 00:09:56;;;;;;;13.13;7.63;;;7.60;99.90;;;;;;21163012;28;20652;-63
2021/12/24 00:20:21;;;;;;;11.20;7.73;;;7.80;99.90;;;;;;21162273;28;20233;-66
2021/12/24 00:40:46;;;;;;;12.70;7.63;;;7.90;99.90;;;;;;21175355;28;20295;-62
2021/12/24 00:51:18;;;;;;;10.80;7.53;;;7.90;99.90;;;;;;21176802;28;20298;-63
2021/12/24 01:01:18;;;;;;;13.13;7.73;;;7.90;99.90;;;;;;21176236;28;20211;-62
2021/12/24 01:11:20;;;;;;;14.97;7.73;;;8.00;99.90;;;;;;21176096;28;20208;-67
2021/12/24 01:22:34;;;;;;;13.23;7.97;;;7.90;99.90;;;;;;21174746;28;20269;-62
2021/12/24 01:52:26;;;;;;;11.87;7.43;;;8.10;99.90;;;;;;21171425;28;20308;-63
2021/12/24 02:02:28;;;;;;;14.77;7.63;;;8.10;99.90;;;;;;21171391;28;20206;-68
2021/12/24 02:12:32;;;;;;;15.77;7.73;;;8.20;99.90;;;;;;21171251;28;20324;-67
2021/12/24 02:32:54;;;;;;;10.30;6.50;;;8.30;99.90;;;;;;21168899;28;20266;-68
2021/12/24 02:42:57;;;;;;;10.57;6.20;;;8.40;99.90;;;;;;21168396;28;20256;-67
2021/12/24 03:03:21;;;;;;;12.07;6.50;;;8.70;99.90;;;;;;21166035;28;20212;-62
2021/12/24 03:13:24;;;;;;;9.67;6.77;;;8.70;99.90;;;;;;21166016;28;20298;-62
2021/12/24 03:33:54;;;;;;;11.37;7.30;;;8.80;99.90;;;;;;21133078;28;20232;-63
2021/12/24 03:43:56;;;;;;;12.20;7.70;;;8.80;99.90;;;;;;21163742;28;20225;-64
2021/12/24 04:04:19;;;;;;;13.37;7.43;;;8.90;99.90;;;;;;21163077;28;20257;-65
2021/12/24 04:14:20;;;;;;;9.63;6.97;;;9.00;99.90;;;;;;21176529;28;20234;-68
2021/12/24 04:24:51;;;;;;;11.43;6.83;;;9.10;99.90;;;;;;21179604;28;20209;-67
2021/12/24 04:35:03;;;;;;;13.47;6.50;;;9.10;99.90;;;;;;21178485;28;20372;-62
2021/12/24 05:05:50;;;;;;;10.37;6.30;;;9.20;99.90;;;;;;21176047;28;20266;-63
2021/12/24 05:16:02;;;;;;;15.50;7.40;;;9.30;99.90;;;;;;21175137;28;20762;-63
2021/12/24 05:26:04;;;;;;;9.57;6.70;;;9.30;99.90;;;;;;21173916;28;20607;-65
2021/12/24 05:36:06;;;;;;;8.20;6.57;;;9.30;99.90;;;;;;21173624;28;20612;-67
2021/12/24 05:46:08;;;;;;;10.13;7.03;;;9.30;99.90;;;;;;21172740;28;20236;-62
2021/12/24 05:56:10;;;;;;;11.27;7.23;;;9.40;99.90;;;;;;21172084;28;20268;-62
2021/12/24 06:06:11;;;;;;;11.70;8.17;;;9.40;99.90;;;;;;21171410;28;20260;-62
2021/12/24 06:16:13;;;;;;;11.07;8.10;;;9.40;99.90;;;;;;21170421;28;20275;-62
2021/12/24 06:26:15;;;;;;;12.70;9.23;;;9.40;99.90;;;;;;21170077;28;20240;-62
2021/12/24 06:36:17;;;;;;;13.70;9.20;;;9.40;99.90;;;;;;21167612;28;20233;-65
2021/12/24 06:46:18;;;;;;;16.20;11.00;;;9.30;99.90;;;;;;21167914;28;20210;-66
2021/12/24 06:56:21;;;;;;;17.10;9.40;;;9.30;99.90;;;;;;21167284;28;20244;-64
2021/12/24 07:06:22;;;;;;;17.03;10.03;;;9.20;99.90;;;;;;21166516;28;20214;-66
2021/12/24 07:16:24;;;;;;;15.07;9.30;;;9.10;99.90;;;;;;21165617;28;20562;-62
2021/12/24 07:26:26;;;;;;;11.70;8.33;;;9.20;99.90;;;;;;21165534;28;20262;-63
2021/12/24 07:36:27;;;;;;;11.87;8.10;;;9.10;99.90;;;;;;21164522;28;20233;-62
2021/12/24 07:46:42;;;;;;;12.10;7.77;;;9.10;99.90;;;;;;21163365;28;20598;-62
2021/12/24 07:56:44;;;;;;;11.13;7.83;;;9.10;99.90;;;;;;21163461;28;20281;-63
2021/12/24 08:06:46;;;;;;;9.23;7.20;;;9.10;99.90;;;;;;21162875;28;20205;-62
2021/12/24 08:16:48;;;;;;;9.77;7.33;;;9.10;99.90;;;;;;21144644;28;20233;-62
2021/12/24 08:26:51;;;;;;;12.50;7.00;;;9.00;99.90;;;;;;21162354;28;20241;-62
2021/12/24 08:36:53;;;;;;;9.83;7.00;;;9.10;99.90;;;;;;21161633;28;20232;-64
2021/12/24 08:46:55;;;;;;;10.10;7.03;;;9.20;99.90;;;;;;21161258;28;20210;-67
2021/12/24 08:56:57;;;;;;;9.73;6.30;;;9.20;99.90;;;;;;21166499;28;20245;-63
2021/12/24 09:06:59;;;;;;;8.83;6.00;;;9.30;99.90;;;;;;21176112;28;20711;-64
2021/12/24 09:17:02;;;;;;;8.60;6.30;;;9.30;99.90;;;;;;21175218;28;20233;-63
2021/12/24 09:27:04;;;;;;;10.67;7.03;;;9.30;99.90;;;;;;21174560;28;20277;-62
2021/12/24 09:37:06;;;;;;;10.93;6.73;;;9.30;99.90;;;;;;21155890;28;20240;-63
2021/12/24 09:47:08;;;;;;;9.67;6.50;;;9.40;99.90;;;;;;21172654;28;20208;-63
2021/12/24 09:57:10;;;;;;;9.80;5.60;;;9.50;99.90;;;;;;21171974;28;20718;-63
2021/12/24 10:07:16;;;;;;;8.27;5.07;;;9.60;99.90;;;;;;21171468;28;20253;-65
2021/12/24 10:17:21;;;;;;;10.90;5.70;;;9.80;99.10;;;;;;21170460;28;20258;-63
2021/12/24 10:27:28;;;;;;;11.80;5.63;;;9.90;98.90;;;;;;21169787;28;20211;-67
2021/12/24 10:37:30;;;;;;;8.03;5.40;;;9.90;99.20;;;;;;21169170;28;20280;-63
2021/12/24 10:47:37;;;;;;;8.03;5.40;;;10.10;98.10;;;;;;21167827;28;20264;-62
2021/12/24 10:57:41;;;;;;;8.67;5.60;;;10.10;98.40;;;;;;21166947;28;20630;-63
2021/12/24 11:07:47;;;;;;;6.83;5.30;;;10.20;98.20;;;;;;21166547;28;20203;-63
2021/12/24 11:17:50;;;;;;;8.97;5.17;;;10.30;98.00;;;;;;21164864;28;20701;-62
2021/12/24 11:27:52;;;;;;;8.37;5.37;;;10.30;97.10;;;;;;21164441;28;20198;-63
2021/12/24 11:37:55;;;;;;;7.23;5.40;;;10.30;97.40;;;;;;21163509;28;20834;-63
2021/12/24 11:47:57;;;;;;;10.50;6.40;;;10.20;97.20;;;;;;21162370;28;20711;-62
2021/12/24 11:58:07;;;;;;;9.07;6.10;;;10.20;97.60;;;;;;21160781;28;20239;-62
2021/12/24 12:08:27;;;;;;;8.53;6.53;;;10.00;97.90;;;;;;21162622;28;20277;-64
2021/12/24 12:18:32;;;;;;;8.57;6.10;;;10.10;98.30;;;;;;21161391;28;20314;-66
2021/12/24 12:28:34;;;;;;;8.67;5.97;;;10.00;98.40;;;;;;21163224;28;20203;-66
2021/12/24 12:38:40;;;;;;;9.07;5.90;;;10.10;98.40;;;;;;21177741;28;20628;-62
2021/12/24 12:48:44;;;;;;;10.43;5.47;;;10.00;98.40;;;;;;21176860;28;20210;-63
2021/12/24 12:58:55;;;;;;;8.43;5.87;;;10.10;98.50;;;;;;21175931;28;20324;-62
2021/12/24 13:09:03;;;;;;;8.67;6.20;;;10.10;98.60;;;;;;21157586;28;20257;-62
2021/12/24 13:29:23;;;;;;;12.67;7.50;;;10.00;99.10;;;;;;21174337;28;20221;-62
2021/12/24 13:39:25;;;;;;;11.00;6.87;;;9.90;99.90;;;;;;21173174;28;20233;-63
2021/12/24 13:59:52;;;;;;;8.63;6.43;;;9.90;99.90;;;;;;21171745;28;20323;-63
2021/12/24 14:09:53;;;;;;;8.27;6.00;;;9.90;99.90;;;;;;21171787;28;20206;-63
2021/12/24 14:30:05;;;;;;;11.93;7.47;;;9.80;99.90;;;;;;21169356;28;20202;-62
2021/12/24 14:40:07;;;;;;;9.20;6.80;;;9.70;99.90;;;;;;21168775;28;20230;-64
2021/12/24 14:50:12;;;;;;;10.35;7.70;;;9.80;99.90;;;;;;21164455;28;20438;-66
2021/12/24 15:00:16;;;;;;;10.23;7.57;;;9.90;99.90;;;;;;21166123;28;20586;-64
2021/12/24 15:10:19;;;;;;;12.27;7.33;;;9.90;99.90;;;;;;21166953;28;20213;-63
2021/12/24 15:20:21;;;;;;;8.97;6.63;;;9.70;99.90;;;;;;21165596;28;20226;-63
2021/12/24 15:30:23;;;;;;;11.33;8.37;;;9.80;99.90;;;;;;21165110;28;20568;-64
2021/12/24 15:40:24;;;;;;;16.40;10.87;;;9.80;99.90;;;;;;21164375;28;20643;-63
2021/12/24 15:50:42;;;;;;;12.90;8.70;;;9.80;99.90;;;;;;21163349;28;20237;-62
2021/12/24 16:00:48;;;;;;;17.47;9.63;;;9.70;99.90;;;;;;21162958;28;20638;-62
2021/12/24 16:10:50;;;;;;;12.77;9.53;;;9.70;99.90;;;;;;21163220;28;20207;-63
2021/12/24 16:20:52;;;;;;;16.57;11.00;;;9.70;99.90;;;;;;21162887;28;20225;-66
2021/12/24 16:30:54;;;;;;;14.40;9.70;;;9.70;99.90;;;;;;21162021;28;20202;-63
2021/12/24 16:40:56;;;;;;;15.03;10.10;;;9.70;99.90;;;;;;21161497;28;20736;-63
2021/12/24 16:50:58;;;;;;;14.60;10.50;;;9.70;99.90;;;;;;21161211;28;20234;-65
2021/12/24 17:01:01;;;;;;;14.33;8.97;;;9.70;99.90;;;;;;21161039;28;20291;-63
2021/12/24 17:11:02;;;;;;;13.37;9.07;;;9.60;99.90;;;;;;21160529;28;20199;-64
2021/12/24 17:21:04;;;;;;;11.00;8.70;;;9.70;99.90;;;;;;21170448;28;20263;-63
2021/12/24 17:31:06;;;;;;;10.20;7.90;;;9.60;99.90;;;;;;21174409;28;20209;-65
2021/12/24 17:41:08;;;;;;;11.23;8.03;;;9.50;99.90;;;;;;21173607;28;20230;-67
2021/12/24 17:51:10;;;;;;;10.27;8.20;;;9.60;99.90;;;;;;21173094;28;20230;-66
2021/12/24 18:01:12;;;;;;;8.73;6.93;;;9.50;99.90;;;;;;21172140;28;20697;-64
2021/12/24 18:11:14;;;;;;;9.47;7.43;;;9.60;99.90;;;;;;21171358;28;20645;-64
2021/12/24 18:21:17;;;;;;;8.50;6.63;;;9.60;99.90;;;;;;21170576;28;20290;-63
2021/12/24 18:31:19;;;;;;;8.77;6.83;;;9.60;99.90;;;;;;21169371;28;20202;-62
2021/12/24 18:41:22;;;;;;;9.17;6.30;;;9.60;99.90;;;;;;21168794;28;20226;-64
2021/12/24 18:51:24;;;;;;;8.90;7.20;;;9.60;99.90;;;;;;21168234;28;20248;-63
2021/12/24 19:01:26;;;;;;;8.23;6.77;;;9.60;99.90;;;;;;21167112;28;20756;-64
2021/12/24 19:11:28;;;;;;;7.77;6.47;;;9.60;99.90;;;;;;21166338;28;20206;-64
2021/12/24 19:21:29;;;;;;;8.23;6.60;;;9.50;99.90;;;;;;21166276;28;20234;-67
2021/12/24 19:31:31;;;;;;;8.53;6.60;;;9.60;99.90;;;;;;21164964;28;20239;-67
2021/12/24 19:41:33;;;;;;;6.77;5.27;;;9.60;99.90;;;;;;21163851;28;20357;-64
2021/12/24 19:51:36;;;;;;;6.30;5.03;;;9.60;99.90;;;;;;21164067;28;20234;-62
2021/12/24 20:01:38;;;;;;;6.70;4.70;;;9.60;99.90;;;;;;21163268;28;20290;-64
2021/12/24 20:11:40;;;;;;;9.67;5.20;;;9.50;99.90;;;;;;21162955;28;20665;-63
2021/12/24 20:21:42;;;;;;;7.07;5.00;;;9.50;99.90;;;;;;21162714;28;20289;-68
2021/12/24 20:31:44;;;;;;;6.50;5.10;;;9.60;99.90;;;;;;21162113;28;20665;-64
2021/12/24 20:41:46;;;;;;;6.60;5.23;;;9.60;99.90;;;;;;21161682;28;20234;-63
2021/12/24 20:51:49;;;;;;;8.40;6.10;;;9.50;99.90;;;;;;21165322;28;20234;-67
2021/12/24 21:01:51;;;;;;;7.13;6.43;;;9.50;99.90;;;;;;21174955;28;20451;-66
2021/12/24 21:11:53;;;;;;;6.37;5.27;;;9.50;99.90;;;;;;21176164;28;20209;-62
2021/12/24 21:21:55;;;;;;;7.63;6.03;;;9.60;99.90;;;;;;21175619;28;20241;-63
2021/12/24 21:31:57;;;;;;;7.90;5.80;;;9.40;99.90;;;;;;21174480;28;20206;-63
2021/12/24 21:42:02;;;;;;;6.07;5.33;;;9.40;99.90;;;;;;21173736;28;20283;-65
2021/12/24 21:52:05;;;;;;;7.30;5.63;;;9.40;99.90;;;;;;21173218;28;20643;-67
2021/12/24 22:02:07;;;;;;;8.80;6.57;;;9.40;99.90;;;;;;21171592;28;20230;-66
2021/12/24 22:12:11;;;;;;;10.40;7.80;;;9.40;99.90;;;;;;21171134;28;20202;-66
2021/12/24 22:22:28;;;;;;;11.23;7.20;;;9.30;99.90;;;;;;21170793;28;20287;-64
2021/12/24 22:32:31;;;;;;;8.93;7.03;;;9.30;99.90;;;;;;21169577;28;20253;-66
2021/12/24 22:42:33;;;;;;;9.10;7.30;;;9.30;99.90;;;;;;21168847;28;20230;-65
2021/12/24 22:52:40;;;;;;;11.10;8.10;;;9.30;99.90;;;;;;21168450;28;20241;-67
2021/12/24 23:02:43;;;;;;;10.00;8.07;;;9.30;99.90;;;;;;21167305;28;20745;-62
2021/12/24 23:12:45;;;;;;;12.10;7.77;;;9.20;99.90;;;;;;21165447;28;20236;-61
2021/12/24 23:22:48;;;;;;;11.43;8.73;;;9.20;99.90;;;;;;21166303;28;20280;-62
2021/12/24 23:32:50;;;;;;;11.47;8.67;;;9.20;99.90;;;;;;21165285;28;20296;-61
2021/12/24 23:42:52;;;;;;;10.60;7.50;;;9.20;99.90;;;;;;21164291;28;20297;-61
2021/12/24 23:53:04;;;;;;;8.73;7.13;;;9.20;99.90;;;;;;21163940;28;20274;-65
